Terminal Aerodrome Forecast
Issued by NWS

Home | Current Version | Previous Version | Text Only | Print | Product List | Glossary On
Versions: 1 2 3 4 5 6 7 8 9 10 11 12 13 14 15 16 17 18 19 20 21 22 23
784
FTUS41 KPBZ 270403 AAC
TAFFKL
TAF AMD
KFKL 270403Z 2704/2724 15013G18KT 6SM -SHRA OVC005
     FM270900 23007KT P6SM VCSH OVC015
     FM271500 24006KT P6SM BKN035
      AMD LTD TO CLD VIS AND WIND=

USA.gov is the U.S. government's official web portal to all federal, state and local government web resources and services.